createdAt,value
2022-08-24T00:01:28.294Z,9.7
2022-08-24T00:03:31.775Z,11.7
2022-08-24T00:04:32.810Z,10.8
2022-08-24T00:06:34.811Z,10.6
2022-08-24T00:08:36.824Z,9.9
2022-08-24T00:10:38.846Z,10.8
2022-08-24T00:12:43.920Z,11.4
2022-08-24T00:22:53.923Z,10.6
2022-08-24T00:24:55.933Z,10.4
2022-08-24T00:27:01.029Z,12
2022-08-24T00:29:07.280Z,12.9
2022-08-24T00:31:05.323Z,10.7
2022-08-24T00:33:07.023Z,11.9
2022-08-24T00:37:11.054Z,13.2
2022-08-24T00:39:13.042Z,15.6
2022-08-24T00:41:18.158Z,13.1
2022-08-24T00:43:20.150Z,15.5
2022-08-24T00:45:22.246Z,15.2
2022-08-24T00:47:24.180Z,16.9
2022-08-24T00:49:26.189Z,15.9
2022-08-24T00:51:28.194Z,16.4
2022-08-24T00:53:30.241Z,18.7
2022-08-24T00:55:35.301Z,17.8
2022-08-24T00:57:37.331Z,18.8
2022-08-24T00:59:39.321Z,20.2
2022-08-24T01:00:41.905Z,19.3
2022-08-24T01:02:44.005Z,20.8
2022-08-24T01:06:47.935Z,17.4
2022-08-24T01:08:56.655Z,18.9
2022-08-24T01:10:55.029Z,18.6
2022-08-24T01:13:00.786Z,20.8
2022-08-24T01:19:03.114Z,17.6
2022-08-24T01:21:05.085Z,16.2
2022-08-24T01:29:16.198Z,17.3
2022-08-24T01:31:18.350Z,18.1
2022-08-24T01:33:20.222Z,18.1
2022-08-24T01:35:22.285Z,20.4
2022-08-24T01:37:27.347Z,18
2022-08-24T01:39:29.350Z,17.9
2022-08-24T01:41:31.376Z,19.2
2022-08-24T01:43:34.432Z,16.7
2022-08-24T01:45:35.411Z,17.9
2022-08-24T01:47:37.407Z,16.6
2022-08-24T01:49:39.398Z,16
2022-08-24T01:51:44.485Z,18.8
2022-08-24T01:53:46.504Z,16.1
2022-08-24T01:55:48.524Z,16
2022-08-24T01:58:05.332Z,22.1
2022-08-24T02:00:07.345Z,21.1
2022-08-24T02:02:09.447Z,18.1
2022-08-24T02:04:17.843Z,20.3
2022-08-24T02:06:16.444Z,17.3
2022-08-24T02:08:18.480Z,20
2022-08-24T02:10:20.491Z,17.8
2022-08-24T02:12:22.506Z,17.5
2022-08-24T02:14:24.511Z,19.4
2022-08-24T02:16:26.574Z,17.8
2022-08-24T02:18:31.599Z,16.8
2022-08-24T02:20:33.625Z,17.5
2022-08-24T02:22:35.644Z,15.4
2022-08-24T02:26:39.656Z,18.5
2022-08-24T02:28:41.699Z,19.3
2022-08-24T02:30:43.756Z,16.8
2022-08-24T02:32:48.802Z,19.2
2022-08-24T02:34:50.807Z,17.3
2022-08-24T02:36:52.822Z,19.7
2022-08-24T02:38:54.903Z,19
2022-08-24T02:40:56.842Z,21.2
2022-08-24T02:42:58.871Z,20.4
2022-08-24T02:45:00.892Z,17.4
2022-08-24T02:47:05.962Z,23.8
2022-08-24T02:49:11.025Z,22.5
2022-08-24T02:51:09.992Z,20.5
2022-08-24T02:54:14.533Z,20.6
2022-08-24T02:56:16.532Z,18.8
2022-08-24T02:58:18.595Z,18.8
2022-08-24T03:00:23.669Z,20
2022-08-24T03:02:25.829Z,18.6
2022-08-24T03:04:27.692Z,18.7
2022-08-24T03:06:29.692Z,19.6
2022-08-24T03:10:33.726Z,19
2022-08-24T03:14:40.865Z,22.6
2022-08-24T03:26:52.973Z,25.9
2022-08-24T03:31:00.266Z,25.2
2022-08-24T03:33:02.226Z,22.8
2022-08-24T03:35:04.104Z,22.9
2022-08-24T03:37:06.152Z,22.5
2022-08-24T03:39:08.140Z,23.3
2022-08-24T03:41:10.194Z,22.6
2022-08-24T03:43:15.285Z,24.2
2022-08-24T03:45:17.271Z,22.9
2022-08-24T03:47:19.342Z,21.4
2022-08-24T03:48:21.826Z,21.4
2022-08-24T04:00:37.036Z,22.2
2022-08-24T04:02:39.108Z,21.6
2022-08-24T04:04:41.065Z,22.6
2022-08-24T04:06:43.112Z,22.5
2022-08-24T04:08:45.126Z,21.8
2022-08-24T04:10:50.224Z,21.2
2022-08-24T04:12:54.880Z,21.3
2022-08-24T04:16:57.934Z,22.1
2022-08-24T04:18:58.304Z,22.6
2022-08-24T04:21:00.345Z,24.1
2022-08-24T04:23:02.578Z,22.7
2022-08-24T04:29:11.494Z,22.3
2022-08-24T04:31:13.523Z,22.5
2022-08-24T04:33:15.554Z,22.3
2022-08-24T04:35:17.562Z,21.6
2022-08-24T04:37:24.200Z,22.1
2022-08-24T04:39:24.683Z,23.9
2022-08-24T04:41:31.119Z,21.8
2022-08-24T04:43:28.733Z,21.5
2022-08-24T04:44:31.294Z,24.6
2022-08-24T04:46:33.323Z,24
2022-08-24T04:52:42.477Z,24.6
2022-08-24T04:58:48.558Z,23.3
2022-08-24T05:00:50.618Z,25.6
2022-08-24T05:02:52.580Z,26.1
2022-08-24T05:04:54.601Z,25
2022-08-24T05:06:59.796Z,26.5
2022-08-24T05:09:01.779Z,24.1
2022-08-24T05:11:03.788Z,27.1
2022-08-24T05:13:05.837Z,26.3
2022-08-24T05:15:07.804Z,25.9
2022-08-24T05:17:10.429Z,28.2
2022-08-24T05:19:11.848Z,25.7
2022-08-24T05:21:16.955Z,27.9
2022-08-24T05:23:18.969Z,25.5
2022-08-24T05:25:20.986Z,25.4
2022-08-24T05:27:22.995Z,25.2
2022-08-24T05:29:25.024Z,28.9
2022-08-24T05:31:27.111Z,24.4
2022-08-24T05:33:29.076Z,23.5
2022-08-24T05:35:34.154Z,25.7
2022-08-24T05:37:37.697Z,25.7
2022-08-24T05:39:39.665Z,24.7
2022-08-24T05:42:02.295Z,25.9
2022-08-24T05:44:06.520Z,24.9
2022-08-24T05:48:11.384Z,22.6
2022-08-24T05:50:13.386Z,23.2
2022-08-24T05:58:22.981Z,18.6
2022-08-24T06:04:30.484Z,16.3
2022-08-24T06:06:32.463Z,15.2
2022-08-24T06:18:47.397Z,12.5
2022-08-24T06:22:51.316Z,14.6
2022-08-24T06:26:55.228Z,14.2
2022-08-24T06:28:57.154Z,16.4
2022-08-24T06:31:02.277Z,15.2
2022-08-24T06:33:04.357Z,15.8
2022-08-24T06:35:06.077Z,14.4
2022-08-24T06:36:08.570Z,14.6
2022-08-24T06:38:10.490Z,16
2022-08-24T06:40:12.490Z,15.8
2022-08-24T06:42:14.352Z,15.9
2022-08-24T06:46:24.993Z,15.7
2022-08-24T06:48:23.142Z,16.5
2022-08-24T06:50:25.135Z,16.1
2022-08-24T06:54:28.821Z,15.4
2022-08-24T06:56:30.678Z,15.8
2022-08-24T06:58:35.662Z,15.9
2022-08-24T07:00:37.582Z,16.6
2022-08-24T07:04:41.276Z,15.9
2022-08-24T07:06:43.135Z,16.1
2022-08-24T07:08:44.979Z,15.8
2022-08-24T07:10:46.803Z,15.4
2022-08-24T07:12:51.761Z,16.5
2022-08-24T07:14:53.622Z,15.9
2022-08-24T07:16:55.451Z,15.9
2022-08-24T07:18:57.278Z,16.5
2022-08-24T07:20:59.117Z,16
2022-08-24T07:23:00.960Z,17.4
2022-08-24T07:25:02.789Z,14.3
2022-08-24T07:27:07.688Z,16.9
2022-08-24T07:32:13.832Z,12.9
2022-08-24T07:34:25.736Z,12.8
2022-08-24T07:36:22.524Z,12.5
2022-08-24T07:38:19.259Z,13.8
2022-08-24T07:40:24.220Z,14.4
2022-08-24T07:44:27.757Z,15.1
2022-08-24T07:46:29.657Z,13.5
2022-08-24T07:48:31.367Z,12.5
2022-08-24T07:50:33.165Z,14.6
2022-08-24T07:52:34.955Z,12.4
2022-08-24T07:56:41.622Z,14.3
2022-08-24T08:02:46.983Z,10.8
2022-08-24T08:04:48.700Z,11.8
2022-08-24T08:08:55.353Z,11.6
2022-08-24T08:10:57.137Z,12.9
2022-08-24T08:12:58.877Z,10.5
2022-08-24T08:17:02.384Z,10.5
2022-08-24T08:25:12.516Z,5.5
2022-08-24T08:28:25.291Z,6.4
2022-08-24T08:30:19.181Z,6.7
2022-08-24T08:32:20.838Z,5.7
2022-08-24T08:34:22.560Z,6
2022-08-24T08:36:27.429Z,6.2
2022-08-24T08:38:29.142Z,7.1
2022-08-24T08:40:30.861Z,7.2
2022-08-24T08:42:32.598Z,6
2022-08-24T08:44:34.328Z,6.9
2022-08-24T08:46:40.559Z,5.6
2022-08-24T08:48:37.751Z,4.5
2022-08-24T08:50:42.611Z,4.7
2022-08-24T08:52:44.358Z,4.9
2022-08-24T08:54:46.089Z,5.4
2022-08-24T08:56:47.826Z,4.4
2022-08-24T08:58:57.327Z,5.2
2022-08-24T09:00:51.281Z,4.9
2022-08-24T09:02:52.993Z,4.6
2022-08-24T09:04:57.927Z,6.9
2022-08-24T09:06:59.605Z,5.5
2022-08-24T09:09:01.354Z,3.9
2022-08-24T09:11:03.068Z,3.9
2022-08-24T09:13:04.824Z,5.4
2022-08-24T09:15:06.553Z,4.8
2022-08-24T09:17:12.729Z,4.1
2022-08-24T09:19:13.196Z,3.8
2022-08-24T09:21:14.933Z,4.1
2022-08-24T09:23:16.684Z,5
2022-08-24T09:25:33.095Z,4.3
2022-08-24T09:27:34.836Z,4.5
2022-08-24T09:29:36.633Z,4.4
2022-08-24T09:31:41.461Z,4.1
2022-08-24T09:33:43.229Z,4.4
2022-08-24T09:35:44.977Z,3.9
2022-08-24T09:37:46.767Z,4.8
2022-08-24T09:43:51.941Z,3.5
2022-08-24T09:45:57.249Z,3.5
2022-08-24T09:47:58.567Z,3.7
2022-08-24T09:50:00.333Z,3.2
2022-08-24T09:52:02.092Z,3.7
2022-08-24T09:54:03.810Z,3.6
2022-08-24T09:56:05.568Z,3
2022-08-24T09:58:07.299Z,3
2022-08-24T10:00:12.175Z,3.9
2022-08-24T10:02:13.955Z,3.8
2022-08-24T10:04:15.643Z,3
2022-08-24T10:06:17.455Z,2.9
2022-08-24T10:08:19.116Z,3.5
2022-08-24T10:10:20.856Z,3.3
2022-08-24T10:12:22.553Z,2.5
2022-08-24T10:14:27.391Z,2.3
2022-08-24T10:16:29.128Z,2.8
2022-08-24T10:18:34.726Z,3
2022-08-24T10:19:33.247Z,3.2
2022-08-24T10:23:36.643Z,3.2
2022-08-24T10:25:38.352Z,2.9
2022-08-24T10:37:51.515Z,2.7
2022-08-24T10:41:57.941Z,2.6
2022-08-24T10:43:59.587Z,2.5
2022-08-24T10:46:01.295Z,2.5
2022-08-24T10:48:03.080Z,2.5
2022-08-24T10:52:06.120Z,2.7
2022-08-24T10:54:07.772Z,4.3
2022-08-24T10:56:12.547Z,2.2
2022-08-24T10:58:14.169Z,3.3
2022-08-24T11:02:17.440Z,1.9
2022-08-24T11:04:19.015Z,2.4
2022-08-24T11:06:20.680Z,2.1
2022-08-24T11:08:22.202Z,1.8
2022-08-24T11:10:27.761Z,2.1
2022-08-24T11:12:28.553Z,2.3
2022-08-24T11:14:30.166Z,2
2022-08-24T11:15:32.521Z,2.3
2022-08-24T11:17:34.140Z,2.1
2022-08-24T11:19:35.699Z,3.1
2022-08-24T11:21:37.261Z,3.2
2022-08-24T11:23:41.998Z,2
2022-08-24T11:25:43.603Z,2.5
2022-08-24T11:27:46.639Z,2
2022-08-24T11:29:48.171Z,1.9
2022-08-24T11:31:49.789Z,2.3
2022-08-24T11:33:51.257Z,1.8
2022-08-24T11:35:55.783Z,1.8
2022-08-24T11:37:57.596Z,1.8
2022-08-24T11:42:00.540Z,1.8
2022-08-24T11:44:02.075Z,2
2022-08-24T11:46:08.399Z,1.7
2022-08-24T11:48:05.304Z,2
2022-08-24T11:50:06.589Z,1.8
2022-08-24T11:52:11.241Z,1.9
2022-08-24T11:54:12.754Z,1.5
2022-08-24T11:56:15.393Z,1.7
2022-08-24T12:00:17.318Z,1.4
2022-08-24T12:02:18.950Z,1.4
2022-08-24T12:04:20.399Z,1.8
2022-08-24T12:06:25.001Z,1.4
2022-08-24T12:08:26.530Z,1.8
2022-08-24T12:11:30.427Z,1.9
2022-08-24T12:13:31.967Z,1.6
2022-08-24T12:17:35.037Z,1.9
2022-08-24T12:19:39.714Z,1.5
2022-08-24T12:21:41.276Z,1.7
2022-08-24T12:23:42.810Z,1.9
2022-08-24T12:29:47.478Z,1.7
2022-08-24T12:31:49.148Z,1.7
2022-08-24T12:33:53.750Z,1.7
2022-08-24T12:37:56.924Z,1.9
2022-08-24T12:39:58.547Z,2.2
2022-08-24T12:41:59.995Z,1.7
2022-08-24T12:44:01.521Z,2
2022-08-24T12:46:03.066Z,2
2022-08-24T12:48:07.802Z,1.8
2022-08-24T12:50:09.349Z,1.7
2022-08-24T12:52:11.060Z,1.7
2022-08-24T12:54:12.524Z,1.3
2022-08-24T12:56:14.097Z,1.9
2022-08-24T12:58:31.337Z,1.1
2022-08-24T13:00:17.265Z,2.6
2022-08-24T13:02:22.028Z,1.4
2022-08-24T13:04:23.500Z,1.5
2022-08-24T13:06:25.079Z,0.7
2022-08-24T13:08:47.556Z,0.9
2022-08-24T13:10:49.096Z,1.3
2022-08-24T13:12:50.620Z,0.8
2022-08-24T13:16:56.582Z,1.3
2022-08-24T13:18:58.044Z,0.9
2022-08-24T13:20:59.444Z,0.8
2022-08-24T13:23:00.951Z,0.9
2022-08-24T13:25:02.329Z,1
2022-08-24T13:27:03.702Z,0.9
2022-08-24T13:29:08.134Z,0.8
2022-08-24T13:31:09.672Z,1.1
2022-08-24T13:33:11.074Z,1.1
2022-08-24T13:35:12.568Z,1.1
2022-08-24T13:37:14.000Z,1.1
2022-08-24T13:39:15.517Z,0.9
2022-08-24T13:41:16.982Z,1
2022-08-24T13:43:21.608Z,1
2022-08-24T13:49:26.089Z,0.8
2022-08-24T13:53:29.139Z,1
2022-08-24T13:55:30.616Z,1.4
2022-08-24T13:57:35.287Z,1.4
2022-08-24T13:59:36.783Z,1.3
2022-08-24T14:01:38.327Z,1.1
2022-08-24T14:02:40.624Z,1
2022-08-24T14:04:42.160Z,1.2
2022-08-24T14:06:44.495Z,1.1
2022-08-24T14:08:45.185Z,1.5
2022-08-24T14:10:53.648Z,0.8
2022-08-24T14:12:51.320Z,1.2
2022-08-24T14:14:52.797Z,1
2022-08-24T14:16:54.178Z,1.3
2022-08-24T14:18:55.638Z,1.1
2022-08-24T14:20:57.408Z,1
2022-08-24T14:22:58.767Z,1
2022-08-24T14:25:03.209Z,1.3
2022-08-24T14:27:04.492Z,1.4
2022-08-24T14:29:05.808Z,1.1
2022-08-24T14:31:07.161Z,1.5
2022-08-24T14:33:08.441Z,1.3
2022-08-24T14:35:09.774Z,1.4
2022-08-24T14:37:11.058Z,1.5
2022-08-24T14:39:15.591Z,1.4
2022-08-24T14:41:16.863Z,1.7
2022-08-24T14:43:21.332Z,1.7
2022-08-24T14:45:19.499Z,1.1
2022-08-24T14:47:20.912Z,2.1
2022-08-24T14:49:22.216Z,1.4
2022-08-24T14:51:23.542Z,1.8
2022-08-24T14:53:27.914Z,1.3
2022-08-24T14:55:29.213Z,1.2
2022-08-24T14:57:30.544Z,1.3
2022-08-24T14:58:32.753Z,1.7
2022-08-24T15:00:34.096Z,1.4
2022-08-24T15:02:35.364Z,1.8
2022-08-24T15:04:38.041Z,1.3
2022-08-24T15:06:41.383Z,1.5
2022-08-24T15:08:42.812Z,1.4
2022-08-24T15:10:44.261Z,1.5
2022-08-24T15:12:45.728Z,1.9
2022-08-24T15:14:47.182Z,1.5
2022-08-24T15:16:49.019Z,1.5
2022-08-24T15:18:50.104Z,2
2022-08-24T15:20:54.732Z,2
2022-08-24T15:22:56.230Z,1
2022-08-24T15:24:57.715Z,1.5
2022-08-24T15:26:59.369Z,1.5
2022-08-24T15:29:00.698Z,1.6
2022-08-24T15:31:02.277Z,1.2
2022-08-24T15:33:03.697Z,1
2022-08-24T15:35:08.351Z,2.1
2022-08-24T15:37:09.847Z,1.2
2022-08-24T15:39:11.402Z,1.4
2022-08-24T15:41:12.860Z,1.5
2022-08-24T15:43:14.535Z,1.1
2022-08-24T15:45:15.914Z,1.4
2022-08-24T15:47:17.427Z,0.9
2022-08-24T15:49:22.104Z,1.2
2022-08-24T15:51:23.652Z,1.8
2022-08-24T15:53:25.170Z,1.4
2022-08-24T15:54:27.508Z,2.7
2022-08-24T15:56:29.055Z,2.1
2022-08-24T16:02:36.816Z,1.8
2022-08-24T16:04:38.221Z,1.6
2022-08-24T16:06:39.701Z,0.9
2022-08-24T16:22:57.137Z,1.3
2022-08-24T16:26:56.366Z,1
2022-08-24T16:28:57.680Z,1.3
2022-08-24T16:31:03.103Z,0.9
2022-08-24T16:35:04.614Z,1.4
2022-08-24T16:39:07.276Z,1
2022-08-24T16:43:09.846Z,1.2
2022-08-24T16:45:14.398Z,1.1
2022-08-24T16:49:16.963Z,1
2022-08-24T16:51:32.945Z,1.4
2022-08-24T16:53:34.207Z,1.1
2022-08-24T16:55:35.491Z,1.3
2022-08-24T16:57:39.950Z,1.8
2022-08-24T16:59:41.219Z,1.3
2022-08-24T17:01:42.559Z,1.7
2022-08-24T17:03:43.840Z,1.7
2022-08-24T17:07:46.495Z,1.6
2022-08-24T17:09:47.912Z,1.3
2022-08-24T17:13:53.909Z,2
2022-08-24T17:17:58.423Z,1.6
2022-08-24T17:24:02.726Z,1.6
2022-08-24T17:26:07.377Z,1.9
2022-08-24T17:28:08.852Z,1.7
2022-08-24T17:34:13.394Z,1.8
2022-08-24T17:36:15.686Z,1.6
2022-08-24T17:38:16.436Z,2
2022-08-24T17:44:24.207Z,2.4
2022-08-24T17:45:26.591Z,2.3
2022-08-24T17:47:28.184Z,2.5
2022-08-24T17:49:29.659Z,1.7
2022-08-24T17:51:31.241Z,2
2022-08-24T17:53:35.955Z,2.4
2022-08-24T17:55:37.568Z,1.7
2022-08-24T17:57:39.168Z,2.9
2022-08-24T17:59:40.770Z,1.9
2022-08-24T18:01:42.383Z,1.7
2022-08-24T18:03:44.061Z,1.7
2022-08-24T18:05:45.635Z,2.6
2022-08-24T18:07:53.437Z,2.2
2022-08-24T18:09:52.078Z,2.1
2022-08-24T18:11:53.761Z,2.1
2022-08-24T18:15:57.136Z,2.6
2022-08-24T18:17:58.834Z,2.6
2022-08-24T18:22:05.423Z,2
2022-08-24T18:24:07.309Z,2.7
2022-08-24T18:26:08.855Z,2.5
2022-08-24T18:28:10.610Z,2
2022-08-24T18:30:12.377Z,2.9
2022-08-24T18:32:16.903Z,2.2
2022-08-24T18:36:20.801Z,3.2
2022-08-24T18:38:22.547Z,1.8
2022-08-24T18:40:24.582Z,1.9
2022-08-24T18:41:26.849Z,2.1
2022-08-24T18:43:28.599Z,2.4
2022-08-24T18:45:30.458Z,2.6
2022-08-24T18:47:32.196Z,2.5
2022-08-24T18:49:37.097Z,2.7
2022-08-24T18:51:38.912Z,2.1
2022-08-24T18:53:40.705Z,2.8
2022-08-24T18:55:42.537Z,2.2
2022-08-24T18:57:44.358Z,2.2
2022-08-24T18:59:46.177Z,2.8
2022-08-24T19:01:48.253Z,2.6
2022-08-24T19:03:53.590Z,2.4
2022-08-24T19:05:54.759Z,2.3
2022-08-24T19:07:56.614Z,2.3
2022-08-24T19:09:58.436Z,2.5
2022-08-24T19:12:00.299Z,2.1
2022-08-24T19:14:02.131Z,2.6
2022-08-24T19:16:04.022Z,3
2022-08-24T19:18:08.898Z,1.8
2022-08-24T19:20:10.748Z,2.9
2022-08-24T19:22:12.591Z,1.7
2022-08-24T19:24:14.526Z,1.9
2022-08-24T19:26:16.316Z,2.4
2022-08-24T19:28:18.162Z,3.4
2022-08-24T19:30:19.998Z,2
2022-08-24T19:32:24.965Z,2.4
2022-08-24T19:34:26.815Z,2.9
2022-08-24T19:36:28.698Z,2.6
2022-08-24T19:37:31.189Z,2.7
2022-08-24T19:43:36.746Z,2.6
2022-08-24T19:45:41.745Z,3
2022-08-24T19:51:47.314Z,2.9
2022-08-24T19:53:49.178Z,2.6
2022-08-24T19:55:51.064Z,2.8
2022-08-24T19:59:57.886Z,2.8
2022-08-24T20:01:59.807Z,3.6
2022-08-24T20:08:05.451Z,3.4
2022-08-24T20:10:12.785Z,3.8
2022-08-24T20:12:10.439Z,3.8
2022-08-24T20:16:16.144Z,2.9
2022-08-24T20:18:17.922Z,3
2022-08-24T20:20:19.823Z,3.3
2022-08-24T20:26:25.486Z,2.9
2022-08-24T20:28:31.880Z,3
2022-08-24T20:30:33.088Z,3.1
2022-08-24T20:34:56.970Z,3.3
2022-08-24T20:36:58.842Z,2.9
2022-08-24T20:39:00.759Z,3.2
2022-08-24T20:41:05.758Z,2.7
2022-08-24T20:43:07.692Z,2.4
2022-08-24T20:45:09.572Z,2.6
2022-08-24T20:47:11.468Z,3.2
2022-08-24T20:49:15.214Z,3
2022-08-24T20:55:22.221Z,4.2
2022-08-24T21:01:27.966Z,4.4
2022-08-24T21:03:29.936Z,4.8
2022-08-24T21:09:38.752Z,5.5
2022-08-24T21:11:40.659Z,5.1
2022-08-24T21:13:42.564Z,5.9
2022-08-24T21:15:44.492Z,4.8
2022-08-24T21:19:48.324Z,6.3
2022-08-24T21:21:50.293Z,5.9
2022-08-24T21:25:57.230Z,6.3
2022-08-24T21:27:59.136Z,6.7
2022-08-24T21:29:01.700Z,6.8
2022-08-24T21:31:06.044Z,6.2
2022-08-24T21:35:07.434Z,6.9
2022-08-24T21:43:18.262Z,7
2022-08-24T21:45:20.181Z,7.2
2022-08-24T21:47:22.154Z,7.8
2022-08-24T21:49:24.072Z,6.8
2022-08-24T21:51:29.103Z,7.6
2022-08-24T21:53:31.028Z,7.5
2022-08-24T21:59:36.897Z,6.4
2022-08-24T22:01:38.968Z,7.2
2022-08-24T22:03:40.766Z,6.8
2022-08-24T22:05:45.817Z,6.9
2022-08-24T22:07:47.738Z,8.5
2022-08-24T22:09:49.691Z,7.3
2022-08-24T22:11:51.673Z,8.6
2022-08-24T22:13:53.610Z,7.6
2022-08-24T22:15:55.587Z,9.5
2022-08-24T22:17:57.498Z,9.2
2022-08-24T22:20:02.627Z,11.2
2022-08-24T22:22:04.509Z,9.5
2022-08-24T22:25:09.003Z,9.1
2022-08-24T22:27:10.948Z,10
2022-08-24T22:29:12.893Z,11.3
2022-08-24T22:33:19.911Z,9.4
2022-08-24T22:35:21.845Z,11
2022-08-24T22:37:23.823Z,10.1
2022-08-24T22:39:25.789Z,9
2022-08-24T22:41:27.899Z,11.4
2022-08-24T22:43:29.730Z,10.3
2022-08-24T22:45:31.654Z,12.4
2022-08-24T22:49:38.837Z,10.7
2022-08-24T22:51:40.666Z,10.8
2022-08-24T22:53:42.640Z,12.9
2022-08-24T22:55:44.608Z,12.1
2022-08-24T22:57:46.578Z,12.6
2022-08-24T22:59:48.537Z,11.9
2022-08-24T23:01:53.646Z,12.2
2022-08-24T23:03:55.638Z,11
2022-08-24T23:05:57.677Z,13.5
2022-08-24T23:07:59.525Z,12.9
2022-08-24T23:10:03.005Z,13.4
2022-08-24T23:12:04.923Z,11.8
2022-08-24T23:14:06.860Z,13.1
2022-08-24T23:16:12.008Z,13.1
2022-08-24T23:18:13.900Z,13.6
2022-08-24T23:21:18.386Z,13.6
2022-08-24T23:23:20.417Z,12.9
2022-08-24T23:25:22.327Z,14.1
2022-08-24T23:27:24.340Z,13
2022-08-24T23:29:29.395Z,15.8
2022-08-24T23:31:31.431Z,14.1
2022-08-24T23:33:33.318Z,15.5
2022-08-24T23:37:37.299Z,15
2022-08-24T23:39:39.248Z,14.6
2022-08-24T23:41:42.159Z,13.7
2022-08-24T23:43:46.299Z,14.8
2022-08-24T23:45:48.345Z,15.3
2022-08-24T23:47:50.280Z,14.5
2022-08-24T23:49:52.251Z,14.9
2022-08-24T23:51:54.230Z,15.7
2022-08-24T23:53:56.200Z,15.6
2022-08-24T23:55:58.191Z,14.8
